createdAt,value
2022-10-22T00:00:50.545Z,5.95
2022-10-22T00:03:17.778Z,6.23
2022-10-22T00:05:44.983Z,5.05
2022-10-22T00:08:12.262Z,6.20
2022-10-22T00:10:39.481Z,6.15
2022-10-22T00:13:06.902Z,8.07
2022-10-22T00:15:34.153Z,6.20
2022-10-22T00:18:01.395Z,9.38
2022-10-22T00:20:28.751Z,5.97
2022-10-22T00:22:56.111Z,4.13
2022-10-22T00:25:23.463Z,5.85
2022-10-22T00:27:50.708Z,5.03
2022-10-22T00:30:17.999Z,5.60
2022-10-22T00:32:45.189Z,6.22
2022-10-22T00:35:12.456Z,5.72
2022-10-22T00:37:39.649Z,7.57
2022-10-22T00:40:07.295Z,4.43
2022-10-22T00:42:34.522Z,5.03
2022-10-22T00:45:11.045Z,7.13
2022-10-22T00:47:40.246Z,5.07
2022-10-22T00:50:10.265Z,8.95
2022-10-22T00:52:37.670Z,8.00
2022-10-22T00:55:05.735Z,8.48
2022-10-22T00:57:33.257Z,5.88
2022-10-22T01:00:00.540Z,5.63
2022-10-22T01:02:27.972Z,7.50
2022-10-22T01:04:55.244Z,4.57
2022-10-22T01:07:24.839Z,6.50
2022-10-22T01:10:03.388Z,7.85
2022-10-22T01:12:51.950Z,7.95
2022-10-22T01:15:32.462Z,6.35
2022-10-22T01:18:15.185Z,5.70
2022-10-22T01:20:42.425Z,9.75
2022-10-22T01:23:28.350Z,8.80
2022-10-22T01:26:14.482Z,8.00
2022-10-22T01:28:57.092Z,7.28
2022-10-22T01:31:26.277Z,12.03
2022-10-22T01:33:55.199Z,7.47
2022-10-22T01:36:22.783Z,10.07
2022-10-22T01:38:50.336Z,6.68
2022-10-22T01:41:17.871Z,8.48
2022-10-22T01:43:45.112Z,6.87
2022-10-22T01:46:13.125Z,7.75
2022-10-22T01:48:40.346Z,6.90
2022-10-22T01:51:19.200Z,8.20
2022-10-22T01:54:08.229Z,7.07
2022-10-22T01:56:54.635Z,9.43
2022-10-22T01:59:22.106Z,7.45
2022-10-22T02:01:49.580Z,7.90
2022-10-22T02:04:31.236Z,6.32
2022-10-22T02:07:01.151Z,14.82
2022-10-22T02:09:30.030Z,8.63
2022-10-22T02:12:00.768Z,7.40
2022-10-22T02:14:29.445Z,5.78
2022-10-22T02:16:57.503Z,7.88
2022-10-22T02:19:29.328Z,9.88
2022-10-22T02:21:56.665Z,10.10
2022-10-22T02:24:24.858Z,12.68
2022-10-22T02:26:58.316Z,7.32
2022-10-22T02:29:28.529Z,6.25
2022-10-22T02:31:57.281Z,7.18
2022-10-22T02:34:26.676Z,6.30
2022-10-22T02:36:54.713Z,16.33
2022-10-22T02:39:22.540Z,9.32
2022-10-22T02:41:49.811Z,9.65
2022-10-22T02:44:20.980Z,10.75
2022-10-22T02:46:48.256Z,9.13
2022-10-22T02:49:15.520Z,10.73
2022-10-22T02:51:42.775Z,7.28
2022-10-22T02:54:10.003Z,9.07
2022-10-22T02:56:37.320Z,7.00
2022-10-22T02:59:04.830Z,9.00
2022-10-22T03:01:32.006Z,7.95
2022-10-22T03:03:59.420Z,12.65
2022-10-22T03:06:26.741Z,8.68
2022-10-22T03:08:54.410Z,9.65
2022-10-22T03:11:22.025Z,7.10
2022-10-22T03:13:49.273Z,6.40
2022-10-22T03:16:16.505Z,7.13
2022-10-22T03:18:43.726Z,6.00
2022-10-22T03:21:14.233Z,6.05
2022-10-22T03:23:43.122Z,10.23
2022-10-22T03:26:10.993Z,8.15
2022-10-22T03:28:38.560Z,6.65
2022-10-22T03:31:05.868Z,6.47
2022-10-22T03:33:33.174Z,8.23
2022-10-22T03:36:01.296Z,8.63
2022-10-22T03:38:29.481Z,9.65
2022-10-22T03:40:56.756Z,9.05
2022-10-22T03:43:24.102Z,7.25
2022-10-22T03:45:51.288Z,6.28
2022-10-22T03:48:18.552Z,9.43
2022-10-22T03:50:45.773Z,7.40
2022-10-22T03:53:13.083Z,9.05
2022-10-22T03:55:41.731Z,11.32
2022-10-22T03:58:08.965Z,10.40
2022-10-22T04:00:36.576Z,8.77
2022-10-22T04:03:04.005Z,6.15
2022-10-22T04:05:33.592Z,10.25
2022-10-22T04:08:01.027Z,10.13
2022-10-22T04:10:28.276Z,6.35
2022-10-22T04:12:55.482Z,7.10
2022-10-22T04:15:22.813Z,11.13
2022-10-22T04:17:50.060Z,9.95
2022-10-22T04:20:17.369Z,10.02
2022-10-22T04:22:44.642Z,13.07
2022-10-22T04:25:11.858Z,8.47
2022-10-22T04:27:39.602Z,7.68
2022-10-22T04:30:07.367Z,7.93
2022-10-22T04:32:34.654Z,13.57
2022-10-22T04:35:01.910Z,8.60
2022-10-22T04:37:29.242Z,9.43
2022-10-22T04:39:58.149Z,7.97
2022-10-22T04:42:25.815Z,13.57
2022-10-22T04:44:53.075Z,7.15
2022-10-22T04:47:20.322Z,11.10
2022-10-22T04:49:47.557Z,11.33
2022-10-22T04:52:14.823Z,7.00
2022-10-22T04:54:42.027Z,5.15
2022-10-22T04:57:09.359Z,5.50
2022-10-22T04:59:36.606Z,8.45
2022-10-22T05:02:04.020Z,4.53
2022-10-22T05:04:31.409Z,8.05
2022-10-22T05:06:58.744Z,6.72
2022-10-22T05:09:26.090Z,7.57
2022-10-22T05:11:53.613Z,7.07
2022-10-22T05:14:22.352Z,8.37
2022-10-22T05:16:50.343Z,10.43
2022-10-22T05:19:25.677Z,8.13
2022-10-22T05:21:54.334Z,11.45
2022-10-22T05:24:21.773Z,7.28
2022-10-22T05:26:58.578Z,8.73
2022-10-22T05:29:26.039Z,8.00
2022-10-22T05:31:53.502Z,7.28
2022-10-22T05:34:20.723Z,9.73
2022-10-22T05:36:47.961Z,9.48
2022-10-22T05:39:15.308Z,7.67
2022-10-22T05:41:42.518Z,11.48
2022-10-22T05:44:12.161Z,7.70
2022-10-22T05:46:39.539Z,6.18
2022-10-22T05:49:07.503Z,7.57
2022-10-22T05:51:35.937Z,9.07
2022-10-22T05:54:04.861Z,9.93
2022-10-22T05:56:32.930Z,9.07
2022-10-22T05:59:00.711Z,7.22
2022-10-22T06:01:29.206Z,13.15
2022-10-22T06:03:58.123Z,7.20
2022-10-22T06:06:30.920Z,6.63
2022-10-22T06:09:01.752Z,5.70
2022-10-22T06:11:32.496Z,6.70
2022-10-22T06:14:02.333Z,5.90
2022-10-22T06:16:30.395Z,8.03
2022-10-22T06:19:00.792Z,6.88
2022-10-22T06:21:28.452Z,8.48
2022-10-22T06:23:59.629Z,9.95
2022-10-22T06:26:27.373Z,7.20
2022-10-22T06:28:55.977Z,9.40
2022-10-22T06:31:23.585Z,8.77
2022-10-22T06:33:50.885Z,5.80
2022-10-22T06:36:23.279Z,9.75
2022-10-22T06:38:57.099Z,7.22
2022-10-22T06:41:28.545Z,5.60
2022-10-22T06:43:57.611Z,10.82
2022-10-22T06:46:25.873Z,7.30
2022-10-22T06:49:00.914Z,10.55
2022-10-22T06:51:28.700Z,10.57
2022-10-22T06:53:56.886Z,9.50
2022-10-22T06:56:25.367Z,6.55
2022-10-22T06:58:53.615Z,8.32
2022-10-22T07:01:22.982Z,13.23
2022-10-22T07:03:53.656Z,8.85
2022-10-22T07:06:21.728Z,10.03
2022-10-22T07:08:49.171Z,8.80
2022-10-22T07:11:17.835Z,6.30
2022-10-22T07:13:45.476Z,9.93
2022-10-22T07:16:13.218Z,5.60
2022-10-22T07:18:41.126Z,10.67
2022-10-22T07:21:09.059Z,8.98
2022-10-22T07:23:36.662Z,7.93
2022-10-22T07:26:04.664Z,7.70
2022-10-22T07:28:32.616Z,6.95
2022-10-22T07:31:00.824Z,10.40
2022-10-22T07:33:28.561Z,10.90
2022-10-22T07:35:59.990Z,6.97
2022-10-22T07:38:27.495Z,7.63
2022-10-22T07:40:54.883Z,11.38
2022-10-22T07:43:23.051Z,9.33
2022-10-22T07:45:50.317Z,14.18
2022-10-22T07:48:17.961Z,7.30
2022-10-22T07:53:12.479Z,9.30
2022-10-22T07:55:39.705Z,10.37
2022-10-22T07:58:07.000Z,9.25
2022-10-22T08:00:34.285Z,8.45
2022-10-22T08:03:01.598Z,8.88
2022-10-22T08:05:28.832Z,10.05
2022-10-22T08:07:56.037Z,9.07
2022-10-22T08:10:23.425Z,9.00
2022-10-22T08:12:50.799Z,9.23
2022-10-22T08:15:18.090Z,10.75
2022-10-22T08:17:45.330Z,6.90
2022-10-22T08:20:12.652Z,7.67
2022-10-22T08:22:39.934Z,10.85
2022-10-22T08:25:07.454Z,7.72
2022-10-22T08:27:34.898Z,7.40
2022-10-22T08:30:02.168Z,5.20
2022-10-22T08:32:29.485Z,8.07
2022-10-22T08:34:56.799Z,6.30
2022-10-22T08:37:24.361Z,8.90
2022-10-22T08:39:51.606Z,5.55
2022-10-22T08:42:28.255Z,10.77
2022-10-22T08:45:12.866Z,8.13
2022-10-22T08:48:02.099Z,10.50
2022-10-22T08:50:36.320Z,8.68
2022-10-22T08:53:05.451Z,5.97
2022-10-22T08:55:37.133Z,7.18
2022-10-22T08:58:28.076Z,6.17
2022-10-22T09:01:03.496Z,11.57
2022-10-22T09:03:36.894Z,11.48
2022-10-22T09:06:13.537Z,7.35
2022-10-22T09:08:42.794Z,9.30
2022-10-22T09:11:10.123Z,8.67
2022-10-22T09:13:37.623Z,6.95
2022-10-22T09:16:23.077Z,8.57
2022-10-22T09:19:09.343Z,5.95
2022-10-22T09:21:47.225Z,10.45
2022-10-22T09:24:17.770Z,9.70
2022-10-22T09:26:45.036Z,4.53
2022-10-22T09:29:20.417Z,8.02
2022-10-22T09:31:47.835Z,8.00
2022-10-22T09:34:24.212Z,8.40
2022-10-22T09:37:01.757Z,8.40
2022-10-22T09:39:32.632Z,6.25
2022-10-22T09:42:00.326Z,8.43
2022-10-22T09:44:27.625Z,6.90
2022-10-22T09:46:54.923Z,8.30
2022-10-22T09:49:23.576Z,6.20
2022-10-22T09:52:00.984Z,7.15
2022-10-22T09:54:34.258Z,7.18
2022-10-22T09:57:06.357Z,8.32
2022-10-22T09:59:37.644Z,6.63
2022-10-22T10:02:26.581Z,7.37
2022-10-22T10:05:03.419Z,9.73
2022-10-22T10:07:31.962Z,9.43
2022-10-22T10:09:59.270Z,5.10
2022-10-22T10:12:35.853Z,9.07
2022-10-22T10:15:09.423Z,5.57
2022-10-22T10:17:55.760Z,8.98
2022-10-22T10:20:28.837Z,5.80
2022-10-22T10:23:03.551Z,8.25
2022-10-22T10:25:54.342Z,6.88
2022-10-22T10:28:24.404Z,9.07
2022-10-22T10:31:06.098Z,8.23
2022-10-22T10:33:33.343Z,7.07
2022-10-22T10:36:04.585Z,8.85
2022-10-22T10:38:55.946Z,6.38
2022-10-22T10:41:32.954Z,10.73
2022-10-22T10:44:00.235Z,7.28
2022-10-22T10:46:44.321Z,5.68
2022-10-22T10:49:17.501Z,9.25
2022-10-22T10:51:44.813Z,10.18
2022-10-22T10:54:15.116Z,5.00
2022-10-22T10:56:55.087Z,4.93
2022-10-22T10:59:25.748Z,6.60
2022-10-22T11:01:59.000Z,5.63
2022-10-22T11:04:44.964Z,8.32
2022-10-22T11:07:23.421Z,8.63
2022-10-22T11:10:10.028Z,8.02
2022-10-22T11:12:40.209Z,8.27
2022-10-22T11:15:10.087Z,5.50
2022-10-22T11:17:39.932Z,9.50
2022-10-22T11:20:19.246Z,4.87
2022-10-22T11:23:17.020Z,10.20
2022-10-22T11:25:44.173Z,9.07
2022-10-22T11:30:44.092Z,5.13
2022-10-22T11:33:13.652Z,7.30
2022-10-22T11:35:45.698Z,9.18
2022-10-22T11:38:15.206Z,6.30
2022-10-22T11:40:51.329Z,9.93
2022-10-22T11:43:29.515Z,7.20
2022-10-22T11:46:23.295Z,5.00
2022-10-22T11:49:05.086Z,7.82
2022-10-22T11:51:36.296Z,8.45
2022-10-22T11:54:23.499Z,5.18
2022-10-22T11:56:53.479Z,12.30
2022-10-22T11:59:40.838Z,6.77
2022-10-22T12:02:26.917Z,6.93
2022-10-22T12:04:56.083Z,6.97
2022-10-22T12:07:29.134Z,9.50
2022-10-22T12:09:56.472Z,11.02
2022-10-22T12:12:23.785Z,8.93
2022-10-22T12:14:58.351Z,7.50
2022-10-22T12:17:26.080Z,9.40
2022-10-22T12:20:08.127Z,7.30
2022-10-22T12:22:37.737Z,7.32
2022-10-22T12:25:18.583Z,10.10
2022-10-22T12:27:51.658Z,11.73
2022-10-22T12:30:18.995Z,7.95
2022-10-22T12:32:46.620Z,7.95
2022-10-22T12:35:18.243Z,10.10
2022-10-22T12:37:45.844Z,7.73
2022-10-22T12:40:21.656Z,8.43
2022-10-22T12:42:53.012Z,7.05
2022-10-22T12:45:20.557Z,9.93
2022-10-22T12:47:52.109Z,10.00
2022-10-22T12:50:21.203Z,8.77
2022-10-22T12:52:49.091Z,9.77
2022-10-22T12:55:20.564Z,13.40
2022-10-22T12:57:48.905Z,8.85
2022-10-22T13:00:23.785Z,11.73
2022-10-22T13:02:51.159Z,8.20
2022-10-22T13:05:22.957Z,8.27
2022-10-22T13:07:51.570Z,11.50
2022-10-22T13:10:32.060Z,10.77
2022-10-22T13:12:59.860Z,9.35
2022-10-22T13:15:36.546Z,10.67
2022-10-22T13:18:05.953Z,11.90
2022-10-22T13:20:37.298Z,8.48
2022-10-22T13:23:05.917Z,12.27
2022-10-22T13:25:35.129Z,10.68
2022-10-22T13:28:02.442Z,11.70
2022-10-22T13:30:31.274Z,9.23
2022-10-22T13:33:00.521Z,14.30
2022-10-22T13:35:28.952Z,10.05
2022-10-22T13:37:56.279Z,11.98
2022-10-22T13:40:23.512Z,10.90
2022-10-22T13:42:51.044Z,12.88
2022-10-22T13:45:18.607Z,10.52
2022-10-22T13:47:47.227Z,11.32
2022-10-22T13:50:16.190Z,13.20
2022-10-22T13:52:45.381Z,12.87
2022-10-22T13:55:14.081Z,11.55
2022-10-22T13:57:41.385Z,8.50
2022-10-22T14:00:10.258Z,11.20
2022-10-22T14:02:39.490Z,13.05
2022-10-22T14:05:09.500Z,11.10
2022-10-22T14:07:37.335Z,7.95
2022-10-22T14:10:07.507Z,9.32
2022-10-22T14:12:34.741Z,7.72
2022-10-22T14:15:02.089Z,9.85
2022-10-22T14:17:29.434Z,6.53
2022-10-22T14:19:56.749Z,9.32
2022-10-22T14:22:26.222Z,13.13
2022-10-22T14:24:54.296Z,7.82
2022-10-22T14:27:21.675Z,11.90
2022-10-22T14:29:48.961Z,8.57
2022-10-22T14:32:20.254Z,8.95
2022-10-22T14:34:47.707Z,8.55
2022-10-22T14:37:19.738Z,8.40
2022-10-22T14:39:51.966Z,13.07
2022-10-22T14:42:20.099Z,10.83
2022-10-22T14:44:47.555Z,12.10
2022-10-22T14:47:14.914Z,9.32
2022-10-22T14:49:42.284Z,14.50
2022-10-22T14:52:11.785Z,10.10
2022-10-22T14:54:41.521Z,10.23
2022-10-22T14:57:11.431Z,8.85
2022-10-22T14:59:38.684Z,13.40
2022-10-22T15:02:06.023Z,11.88
2022-10-22T15:04:33.393Z,13.98
2022-10-22T15:07:00.657Z,8.77
2022-10-22T15:09:27.887Z,7.88
2022-10-22T15:11:55.144Z,13.13
2022-10-22T15:14:22.365Z,9.57
2022-10-22T15:16:49.651Z,9.98
2022-10-22T15:19:16.943Z,9.27
2022-10-22T15:21:44.194Z,9.00
2022-10-22T15:24:11.411Z,10.65
2022-10-22T15:26:38.688Z,7.10
2022-10-22T15:29:06.244Z,10.13
2022-10-22T15:32:05.919Z,12.77
2022-10-22T15:34:34.654Z,9.48
2022-10-22T15:37:03.316Z,11.90
2022-10-22T15:39:30.683Z,8.55
2022-10-22T15:41:58.868Z,11.68
2022-10-22T15:44:27.191Z,10.97
2022-10-22T15:46:57.666Z,9.20
2022-10-22T15:49:26.397Z,9.40
2022-10-22T15:51:53.762Z,9.32
2022-10-22T15:54:22.544Z,6.82
2022-10-22T15:56:49.877Z,9.73
2022-10-22T15:59:17.741Z,10.30
2022-10-22T16:01:45.183Z,10.27
2022-10-22T16:04:12.623Z,14.38
2022-10-22T16:06:41.687Z,13.65
2022-10-22T16:09:10.088Z,11.53
2022-10-22T16:11:37.542Z,8.27
2022-10-22T16:14:05.333Z,12.20
2022-10-22T16:16:34.292Z,8.10
2022-10-22T16:19:01.567Z,11.07
2022-10-22T16:21:29.317Z,10.27
2022-10-22T16:23:56.505Z,7.90
2022-10-22T16:26:23.799Z,11.57
2022-10-22T16:28:51.341Z,11.10
2022-10-22T16:31:19.801Z,13.88
2022-10-22T16:33:50.037Z,13.70
2022-10-22T16:36:18.908Z,10.65
2022-10-22T16:38:46.917Z,11.63
2022-10-22T16:41:18.527Z,8.63
2022-10-22T16:43:49.662Z,12.02
2022-10-22T16:46:18.121Z,9.33
2022-10-22T16:48:52.803Z,15.35
2022-10-22T16:51:21.180Z,10.30
2022-10-22T16:53:48.628Z,11.57
2022-10-22T16:56:16.685Z,10.98
2022-10-22T16:58:44.629Z,9.90
2022-10-22T17:01:14.908Z,11.13
2022-10-22T17:03:45.233Z,11.70
2022-10-22T17:06:12.519Z,17.92
2022-10-22T17:08:40.995Z,20.63
2022-10-22T17:11:08.835Z,15.80
2022-10-22T17:13:36.405Z,12.07
2022-10-22T17:16:07.868Z,13.48
2022-10-22T17:18:36.101Z,14.20
2022-10-22T17:21:04.764Z,14.90
2022-10-22T17:23:32.144Z,11.27
2022-10-22T17:26:06.186Z,9.57
2022-10-22T17:28:34.119Z,12.52
2022-10-22T17:31:04.186Z,13.18
2022-10-22T17:33:31.874Z,12.93
2022-10-22T17:35:59.213Z,14.77
2022-10-22T17:38:26.508Z,14.18
2022-10-22T17:40:54.020Z,20.10
2022-10-22T17:43:21.445Z,14.65
2022-10-22T17:45:48.769Z,16.08
2022-10-22T17:48:16.019Z,13.50
2022-10-22T17:50:46.958Z,13.57
2022-10-22T17:53:16.990Z,14.27
2022-10-22T17:55:44.244Z,16.25
2022-10-22T17:58:11.482Z,14.07
2022-10-22T18:00:38.825Z,24.70
2022-10-22T18:03:06.119Z,20.70
2022-10-22T18:05:34.045Z,14.23
2022-10-22T18:08:05.624Z,13.55
2022-10-22T18:10:39.616Z,18.48
2022-10-22T18:13:07.039Z,19.13
2022-10-22T18:15:36.325Z,17.48
2022-10-22T18:18:04.188Z,15.38
2022-10-22T18:20:31.796Z,12.57
2022-10-22T18:22:59.041Z,13.07
2022-10-22T18:25:26.502Z,12.87
2022-10-22T18:27:53.750Z,15.18
2022-10-22T18:30:20.981Z,11.75
2022-10-22T18:32:48.295Z,16.63
2022-10-22T18:35:15.655Z,15.07
2022-10-22T18:37:43.197Z,24.27
2022-10-22T18:40:14.480Z,18.60
2022-10-22T18:42:42.576Z,15.20
2022-10-22T18:45:12.004Z,13.15
2022-10-22T18:47:42.394Z,20.75
2022-10-22T18:50:10.354Z,14.93
2022-10-22T18:52:37.594Z,13.77
2022-10-22T18:55:05.310Z,15.77
2022-10-22T18:57:32.617Z,16.90
2022-10-22T18:59:59.844Z,15.88
2022-10-22T19:02:27.274Z,14.27
2022-10-22T19:04:54.623Z,17.33
2022-10-22T19:07:21.905Z,16.63
2022-10-22T19:09:49.250Z,28.88
2022-10-22T19:12:16.608Z,22.70
2022-10-22T19:14:43.899Z,20.33
2022-10-22T19:17:11.288Z,15.65
2022-10-22T19:19:38.563Z,20.17
2022-10-22T19:22:05.820Z,14.32
2022-10-22T19:24:33.126Z,17.65
2022-10-22T19:27:00.399Z,16.10
2022-10-22T19:29:27.770Z,15.77
2022-10-22T19:31:55.150Z,15.07
2022-10-22T19:34:22.451Z,18.73
2022-10-22T19:36:51.767Z,12.15
2022-10-22T19:39:19.234Z,15.03
2022-10-22T19:41:46.586Z,13.15
2022-10-22T19:44:13.942Z,15.85
2022-10-22T19:46:41.212Z,14.68
2022-10-22T19:49:08.466Z,12.93
2022-10-22T19:51:35.833Z,16.93
2022-10-22T19:54:08.145Z,12.73
2022-10-22T19:56:37.760Z,20.23
2022-10-22T19:59:08.293Z,16.38
2022-10-22T20:01:35.760Z,14.63
2022-10-22T20:04:03.298Z,16.53
2022-10-22T20:06:31.382Z,14.10
2022-10-22T20:08:58.824Z,17.77
2022-10-22T20:11:27.822Z,12.48
2022-10-22T20:13:56.623Z,16.13
2022-10-22T20:16:25.102Z,16.43
2022-10-22T20:18:52.831Z,14.35
2022-10-22T20:21:21.184Z,13.38
2022-10-22T20:23:48.967Z,15.60
2022-10-22T20:26:16.276Z,13.57
2022-10-22T20:28:43.503Z,16.10
2022-10-22T20:31:15.577Z,16.08
2022-10-22T20:33:42.891Z,13.55
2022-10-22T20:36:19.121Z,14.50
2022-10-22T20:38:48.278Z,18.30
2022-10-22T20:41:24.811Z,19.90
2022-10-22T20:43:52.665Z,15.48
2022-10-22T20:46:24.438Z,11.48
2022-10-22T20:48:55.844Z,17.13
2022-10-22T20:51:23.219Z,16.02
2022-10-22T20:53:50.741Z,18.93
2022-10-22T20:56:18.725Z,16.02
2022-10-22T20:58:48.669Z,16.52
2022-10-22T21:01:24.154Z,14.80
2022-10-22T21:03:52.421Z,14.60
2022-10-22T21:06:23.315Z,15.27
2022-10-22T21:08:51.738Z,15.43
2022-10-22T21:11:19.969Z,14.90
2022-10-22T21:13:47.377Z,19.63
2022-10-22T21:16:15.322Z,14.48
2022-10-22T21:18:42.597Z,16.30
2022-10-22T21:21:11.825Z,17.10
2022-10-22T21:23:39.614Z,12.85
2022-10-22T21:26:07.061Z,12.70
2022-10-22T21:28:35.671Z,15.30
2022-10-22T21:31:07.356Z,15.00
2022-10-22T21:33:38.548Z,18.30
2022-10-22T21:36:06.707Z,15.68
2022-10-22T21:38:34.133Z,16.02
2022-10-22T21:41:04.785Z,17.80
2022-10-22T21:43:32.011Z,13.97
2022-10-22T21:46:09.567Z,13.80
2022-10-22T21:48:37.573Z,15.10
2022-10-22T21:51:16.076Z,14.45
2022-10-22T21:53:43.491Z,16.90
2022-10-22T21:56:15.386Z,17.93
2022-10-22T21:58:42.669Z,14.45
2022-10-22T22:01:10.086Z,16.00
2022-10-22T22:03:37.401Z,17.83
2022-10-22T22:06:05.911Z,12.75
2022-10-22T22:08:34.136Z,15.77
2022-10-22T22:11:08.993Z,17.10
2022-10-22T22:13:36.322Z,11.52
2022-10-22T22:16:08.434Z,19.55
2022-10-22T22:18:36.315Z,14.15
2022-10-22T22:21:05.259Z,17.47
2022-10-22T22:23:32.691Z,18.30
2022-10-22T22:26:00.637Z,17.55
2022-10-22T22:28:29.316Z,13.57
2022-10-22T22:30:56.847Z,17.40
2022-10-22T22:33:24.090Z,16.90
2022-10-22T22:35:51.337Z,15.10
2022-10-22T22:38:18.678Z,13.68
2022-10-22T22:40:45.934Z,12.27
2022-10-22T22:43:13.238Z,15.82
2022-10-22T22:45:40.893Z,13.70
2022-10-22T22:48:08.576Z,16.05
2022-10-22T22:50:36.914Z,12.00
2022-10-22T22:53:04.361Z,11.35
2022-10-22T22:55:32.079Z,10.88
2022-10-22T22:57:59.318Z,14.00
2022-10-22T23:00:26.665Z,12.70
2022-10-22T23:02:55.398Z,14.32
2022-10-22T23:05:22.630Z,18.10
2022-10-22T23:07:49.889Z,12.02
2022-10-22T23:10:17.212Z,16.00
2022-10-22T23:12:44.679Z,11.32
2022-10-22T23:15:12.083Z,14.93
2022-10-22T23:17:39.327Z,11.02
2022-10-22T23:20:06.937Z,13.25
2022-10-22T23:22:34.221Z,14.87
2022-10-22T23:25:01.523Z,13.32
2022-10-22T23:27:28.866Z,10.10
2022-10-22T23:29:56.087Z,11.45
2022-10-22T23:32:23.322Z,14.88
2022-10-22T23:34:50.596Z,14.47
2022-10-22T23:37:17.930Z,13.57
2022-10-22T23:39:45.180Z,12.18
2022-10-22T23:42:12.433Z,12.65
2022-10-22T23:44:39.685Z,12.52
2022-10-22T23:47:06.961Z,14.57
2022-10-22T23:49:34.517Z,15.55
2022-10-22T23:52:01.800Z,13.07
2022-10-22T23:54:29.082Z,12.48
2022-10-22T23:56:56.359Z,13.02
2022-10-22T23:59:23.679Z,11.77
